sensor_id;sensor_type;location;lat;lon;timestamp;P1;durP1;ratioP1;P2;durP2;ratioP2
65420;SDS011;52028;50.658;14.004;2022-08-19T00:01:20;15.23;;;11.10;;
65420;SDS011;52028;50.658;14.004;2022-08-19T00:03:46;15.15;;;11.20;;
65420;SDS011;52028;50.658;14.004;2022-08-19T00:06:11;13.48;;;10.95;;
65420;SDS011;52028;50.658;14.004;2022-08-19T00:08:37;14.77;;;11.25;;
65420;SDS011;52028;50.658;14.004;2022-08-19T00:11:02;12.45;;;10.88;;
65420;SDS011;52028;50.658;14.004;2022-08-19T00:13:28;16.63;;;11.27;;
65420;SDS011;52028;50.658;14.004;2022-08-19T00:15:56;13.77;;;10.65;;
65420;SDS011;52028;50.658;14.004;2022-08-19T00:18:23;15.02;;;11.07;;
65420;SDS011;52028;50.658;14.004;2022-08-19T00:20:49;16.20;;;11.35;;
65420;SDS011;52028;50.658;14.004;2022-08-19T00:23:14;14.07;;;10.93;;
65420;SDS011;52028;50.658;14.004;2022-08-19T00:25:41;17.65;;;11.35;;
65420;SDS011;52028;50.658;14.004;2022-08-19T00:28:06;15.73;;;11.65;;
65420;SDS011;52028;50.658;14.004;2022-08-19T00:30:32;13.40;;;10.52;;
65420;SDS011;52028;50.658;14.004;2022-08-19T00:32:57;15.30;;;12.07;;
65420;SDS011;52028;50.658;14.004;2022-08-19T00:35:23;14.77;;;11.27;;
65420;SDS011;52028;50.658;14.004;2022-08-19T00:37:50;15.45;;;10.93;;
65420;SDS011;52028;50.658;14.004;2022-08-19T00:40:17;16.73;;;12.23;;
65420;SDS011;52028;50.658;14.004;2022-08-19T00:42:44;15.70;;;11.27;;
65420;SDS011;52028;50.658;14.004;2022-08-19T00:45:12;15.40;;;11.15;;
65420;SDS011;52028;50.658;14.004;2022-08-19T00:47:42;17.23;;;12.05;;
65420;SDS011;52028;50.658;14.004;2022-08-19T00:50:08;13.38;;;11.05;;
65420;SDS011;52028;50.658;14.004;2022-08-19T00:52:36;14.88;;;11.50;;
65420;SDS011;52028;50.658;14.004;2022-08-19T00:55:05;16.17;;;11.55;;
65420;SDS011;52028;50.658;14.004;2022-08-19T00:57:38;14.45;;;11.07;;
65420;SDS011;52028;50.658;14.004;2022-08-19T01:00:11;14.25;;;12.00;;
65420;SDS011;52028;50.658;14.004;2022-08-19T01:02:39;13.70;;;11.60;;
65420;SDS011;52028;50.658;14.004;2022-08-19T01:05:08;15.00;;;11.70;;
65420;SDS011;52028;50.658;14.004;2022-08-19T01:07:37;14.02;;;11.73;;
65420;SDS011;52028;50.658;14.004;2022-08-19T01:10:05;18.45;;;12.30;;
65420;SDS011;52028;50.658;14.004;2022-08-19T01:12:33;16.20;;;13.27;;
65420;SDS011;52028;50.658;14.004;2022-08-19T01:14:59;17.92;;;12.45;;
65420;SDS011;52028;50.658;14.004;2022-08-19T01:17:24;15.77;;;11.88;;
65420;SDS011;52028;50.658;14.004;2022-08-19T01:19:50;13.32;;;11.32;;
65420;SDS011;52028;50.658;14.004;2022-08-19T01:24:48;17.27;;;12.23;;
65420;SDS011;52028;50.658;14.004;2022-08-19T01:27:14;14.82;;;11.90;;
65420;SDS011;52028;50.658;14.004;2022-08-19T01:29:40;18.65;;;11.25;;
65420;SDS011;52028;50.658;14.004;2022-08-19T01:32:08;15.55;;;11.85;;
65420;SDS011;52028;50.658;14.004;2022-08-19T01:34:37;14.30;;;11.40;;
65420;SDS011;52028;50.658;14.004;2022-08-19T01:37:06;18.75;;;12.85;;
65420;SDS011;52028;50.658;14.004;2022-08-19T01:39:35;18.00;;;12.85;;
65420;SDS011;52028;50.658;14.004;2022-08-19T01:42:02;16.13;;;13.20;;
65420;SDS011;52028;50.658;14.004;2022-08-19T01:44:28;17.67;;;13.18;;
65420;SDS011;52028;50.658;14.004;2022-08-19T01:46:54;15.52;;;12.30;;
65420;SDS011;52028;50.658;14.004;2022-08-19T01:49:20;17.77;;;13.75;;
65420;SDS011;52028;50.658;14.004;2022-08-19T01:51:48;20.83;;;15.27;;
65420;SDS011;52028;50.658;14.004;2022-08-19T01:54:14;18.95;;;15.27;;
65420;SDS011;52028;50.658;14.004;2022-08-19T01:56:41;20.50;;;14.27;;
65420;SDS011;52028;50.658;14.004;2022-08-19T01:59:09;21.08;;;15.85;;
65420;SDS011;52028;50.658;14.004;2022-08-19T02:01:39;24.75;;;15.98;;
65420;SDS011;52028;50.658;14.004;2022-08-19T02:04:04;21.38;;;15.25;;
65420;SDS011;52028;50.658;14.004;2022-08-19T02:06:30;22.05;;;16.70;;
65420;SDS011;52028;50.658;14.004;2022-08-19T02:08:57;22.67;;;15.10;;
65420;SDS011;52028;50.658;14.004;2022-08-19T02:11:26;19.80;;;14.65;;
65420;SDS011;52028;50.658;14.004;2022-08-19T02:13:54;26.65;;;17.17;;
65420;SDS011;52028;50.658;14.004;2022-08-19T02:16:20;21.02;;;15.93;;
65420;SDS011;52028;50.658;14.004;2022-08-19T02:18:46;21.80;;;15.48;;
65420;SDS011;52028;50.658;14.004;2022-08-19T02:21:13;22.40;;;16.30;;
65420;SDS011;52028;50.658;14.004;2022-08-19T02:23:43;22.40;;;15.32;;
65420;SDS011;52028;50.658;14.004;2022-08-19T02:26:09;25.25;;;17.35;;
65420;SDS011;52028;50.658;14.004;2022-08-19T02:28:35;22.20;;;16.10;;
65420;SDS011;52028;50.658;14.004;2022-08-19T02:31:01;22.10;;;16.00;;
65420;SDS011;52028;50.658;14.004;2022-08-19T02:33:28;25.80;;;15.98;;
65420;SDS011;52028;50.658;14.004;2022-08-19T02:35:53;21.48;;;15.73;;
65420;SDS011;52028;50.658;14.004;2022-08-19T02:38:19;21.02;;;15.07;;
65420;SDS011;52028;50.658;14.004;2022-08-19T02:40:54;26.77;;;16.95;;
65420;SDS011;52028;50.658;14.004;2022-08-19T02:43:24;21.17;;;15.57;;
65420;SDS011;52028;50.658;14.004;2022-08-19T02:45:50;21.65;;;16.00;;
65420;SDS011;52028;50.658;14.004;2022-08-19T02:48:19;24.65;;;17.27;;
65420;SDS011;52028;50.658;14.004;2022-08-19T02:50:46;21.05;;;15.50;;
65420;SDS011;52028;50.658;14.004;2022-08-19T02:53:16;25.52;;;16.35;;
65420;SDS011;52028;50.658;14.004;2022-08-19T02:55:42;24.52;;;16.63;;
65420;SDS011;52028;50.658;14.004;2022-08-19T02:58:11;24.00;;;16.45;;
65420;SDS011;52028;50.658;14.004;2022-08-19T03:00:42;24.33;;;17.35;;
65420;SDS011;52028;50.658;14.004;2022-08-19T03:03:08;23.77;;;16.70;;
65420;SDS011;52028;50.658;14.004;2022-08-19T03:05:34;22.88;;;16.90;;
65420;SDS011;52028;50.658;14.004;2022-08-19T03:07:59;22.73;;;16.23;;
65420;SDS011;52028;50.658;14.004;2022-08-19T03:10:24;23.20;;;16.15;;
65420;SDS011;52028;50.658;14.004;2022-08-19T03:12:50;23.65;;;16.50;;
65420;SDS011;52028;50.658;14.004;2022-08-19T03:15:15;24.10;;;16.55;;
65420;SDS011;52028;50.658;14.004;2022-08-19T03:17:40;21.50;;;15.02;;
65420;SDS011;52028;50.658;14.004;2022-08-19T03:20:06;22.40;;;15.70;;
65420;SDS011;52028;50.658;14.004;2022-08-19T03:22:32;25.45;;;16.50;;
65420;SDS011;52028;50.658;14.004;2022-08-19T03:24:57;22.45;;;15.80;;
65420;SDS011;52028;50.658;14.004;2022-08-19T03:27:24;22.35;;;15.98;;
65420;SDS011;52028;50.658;14.004;2022-08-19T03:29:49;21.63;;;15.38;;
65420;SDS011;52028;50.658;14.004;2022-08-19T03:32:15;21.65;;;16.05;;
65420;SDS011;52028;50.658;14.004;2022-08-19T03:34:41;22.85;;;15.75;;
65420;SDS011;52028;50.658;14.004;2022-08-19T03:37:07;19.63;;;14.85;;
65420;SDS011;52028;50.658;14.004;2022-08-19T03:39:35;20.80;;;15.38;;
65420;SDS011;52028;50.658;14.004;2022-08-19T03:42:01;19.75;;;15.43;;
65420;SDS011;52028;50.658;14.004;2022-08-19T03:44:28;24.45;;;15.15;;
65420;SDS011;52028;50.658;14.004;2022-08-19T03:46:56;20.85;;;15.82;;
65420;SDS011;52028;50.658;14.004;2022-08-19T03:49:23;22.23;;;15.93;;
65420;SDS011;52028;50.658;14.004;2022-08-19T03:54:18;21.40;;;15.65;;
65420;SDS011;52028;50.658;14.004;2022-08-19T03:56:45;25.42;;;15.70;;
65420;SDS011;52028;50.658;14.004;2022-08-19T03:59:14;22.13;;;16.05;;
65420;SDS011;52028;50.658;14.004;2022-08-19T04:01:41;22.92;;;15.07;;
65420;SDS011;52028;50.658;14.004;2022-08-19T04:04:07;21.88;;;15.60;;
65420;SDS011;52028;50.658;14.004;2022-08-19T04:06:34;21.45;;;16.08;;
65420;SDS011;52028;50.658;14.004;2022-08-19T04:09:02;20.77;;;15.00;;
65420;SDS011;52028;50.658;14.004;2022-08-19T04:11:31;20.65;;;14.98;;
65420;SDS011;52028;50.658;14.004;2022-08-19T04:14:00;20.20;;;15.60;;
65420;SDS011;52028;50.658;14.004;2022-08-19T04:16:26;23.13;;;14.93;;
65420;SDS011;52028;50.658;14.004;2022-08-19T04:18:55;21.45;;;15.50;;
65420;SDS011;52028;50.658;14.004;2022-08-19T04:21:25;21.13;;;15.82;;
65420;SDS011;52028;50.658;14.004;2022-08-19T04:23:52;22.42;;;16.02;;
65420;SDS011;52028;50.658;14.004;2022-08-19T04:26:19;20.23;;;14.57;;
65420;SDS011;52028;50.658;14.004;2022-08-19T04:28:46;19.08;;;15.00;;
65420;SDS011;52028;50.658;14.004;2022-08-19T04:31:13;21.38;;;14.90;;
65420;SDS011;52028;50.658;14.004;2022-08-19T04:33:40;20.15;;;14.38;;
65420;SDS011;52028;50.658;14.004;2022-08-19T04:36:06;20.88;;;15.60;;
65420;SDS011;52028;50.658;14.004;2022-08-19T04:38:32;22.58;;;15.20;;
65420;SDS011;52028;50.658;14.004;2022-08-19T04:40:59;19.63;;;14.82;;
65420;SDS011;52028;50.658;14.004;2022-08-19T04:43:44;22.33;;;15.40;;
65420;SDS011;52028;50.658;14.004;2022-08-19T04:46:13;20.83;;;13.82;;
65420;SDS011;52028;50.658;14.004;2022-08-19T04:48:39;19.52;;;14.18;;
65420;SDS011;52028;50.658;14.004;2022-08-19T04:51:10;22.70;;;16.58;;
65420;SDS011;52028;50.658;14.004;2022-08-19T04:53:38;23.95;;;15.50;;
65420;SDS011;52028;50.658;14.004;2022-08-19T04:56:08;21.40;;;14.68;;
65420;SDS011;52028;50.658;14.004;2022-08-19T04:58:44;18.75;;;13.77;;
65420;SDS011;52028;50.658;14.004;2022-08-19T05:01:13;28.73;;;18.83;;
65420;SDS011;52028;50.658;14.004;2022-08-19T05:03:42;20.88;;;14.38;;
65420;SDS011;52028;50.658;14.004;2022-08-19T05:06:09;37.65;;;25.65;;
65420;SDS011;52028;50.658;14.004;2022-08-19T05:08:37;25.50;;;17.87;;
65420;SDS011;52028;50.658;14.004;2022-08-19T05:11:07;25.63;;;18.90;;
65420;SDS011;52028;50.658;14.004;2022-08-19T05:13:36;24.77;;;18.38;;
65420;SDS011;52028;50.658;14.004;2022-08-19T05:16:02;18.30;;;13.43;;
65420;SDS011;52028;50.658;14.004;2022-08-19T05:18:27;18.67;;;14.10;;
65420;SDS011;52028;50.658;14.004;2022-08-19T05:21:16;16.50;;;12.52;;
65420;SDS011;52028;50.658;14.004;2022-08-19T05:24:03;16.52;;;13.30;;
65420;SDS011;52028;50.658;14.004;2022-08-19T05:26:33;21.52;;;13.32;;
65420;SDS011;52028;50.658;14.004;2022-08-19T05:28:59;20.90;;;13.10;;
65420;SDS011;52028;50.658;14.004;2022-08-19T05:31:25;18.05;;;13.40;;
65420;SDS011;52028;50.658;14.004;2022-08-19T05:33:50;23.30;;;14.02;;
65420;SDS011;52028;50.658;14.004;2022-08-19T05:36:15;17.27;;;13.68;;
65420;SDS011;52028;50.658;14.004;2022-08-19T05:38:41;23.27;;;15.50;;
65420;SDS011;52028;50.658;14.004;2022-08-19T05:41:07;18.20;;;14.10;;
65420;SDS011;52028;50.658;14.004;2022-08-19T05:43:36;21.08;;;14.57;;
65420;SDS011;52028;50.658;14.004;2022-08-19T05:46:02;22.35;;;14.55;;
65420;SDS011;52028;50.658;14.004;2022-08-19T05:50:58;22.15;;;14.40;;
65420;SDS011;52028;50.658;14.004;2022-08-19T05:53:30;22.17;;;14.45;;
65420;SDS011;52028;50.658;14.004;2022-08-19T05:55:55;21.27;;;13.77;;
65420;SDS011;52028;50.658;14.004;2022-08-19T05:58:20;18.20;;;13.48;;
65420;SDS011;52028;50.658;14.004;2022-08-19T06:00:45;19.42;;;12.90;;
65420;SDS011;52028;50.658;14.004;2022-08-19T06:03:11;20.17;;;13.13;;
65420;SDS011;52028;50.658;14.004;2022-08-19T06:05:36;16.90;;;12.45;;
65420;SDS011;52028;50.658;14.004;2022-08-19T06:08:01;19.20;;;12.40;;
65420;SDS011;52028;50.658;14.004;2022-08-19T06:10:27;19.88;;;12.50;;
65420;SDS011;52028;50.658;14.004;2022-08-19T06:12:53;16.73;;;11.50;;
65420;SDS011;52028;50.658;14.004;2022-08-19T06:15:19;17.50;;;12.15;;
65420;SDS011;52028;50.658;14.004;2022-08-19T06:17:45;20.90;;;12.25;;
65420;SDS011;52028;50.658;14.004;2022-08-19T06:20:11;27.05;;;13.13;;
65420;SDS011;52028;50.658;14.004;2022-08-19T06:22:39;26.92;;;12.85;;
65420;SDS011;52028;50.658;14.004;2022-08-19T06:25:09;17.73;;;11.45;;
65420;SDS011;52028;50.658;14.004;2022-08-19T06:27:35;23.35;;;11.73;;
65420;SDS011;52028;50.658;14.004;2022-08-19T06:30:01;16.90;;;12.05;;
65420;SDS011;52028;50.658;14.004;2022-08-19T06:32:28;19.58;;;11.60;;
65420;SDS011;52028;50.658;14.004;2022-08-19T06:34:54;15.95;;;11.82;;
65420;SDS011;52028;50.658;14.004;2022-08-19T06:37:19;22.58;;;11.65;;
65420;SDS011;52028;50.658;14.004;2022-08-19T06:39:47;16.27;;;11.82;;
65420;SDS011;52028;50.658;14.004;2022-08-19T06:42:12;16.75;;;11.18;;
65420;SDS011;52028;50.658;14.004;2022-08-19T06:44:41;19.75;;;12.55;;
65420;SDS011;52028;50.658;14.004;2022-08-19T06:47:08;15.00;;;10.07;;
65420;SDS011;52028;50.658;14.004;2022-08-19T06:49:35;12.70;;;10.20;;
65420;SDS011;52028;50.658;14.004;2022-08-19T06:52:00;12.20;;;9.88;;
65420;SDS011;52028;50.658;14.004;2022-08-19T06:54:26;13.82;;;9.90;;
65420;SDS011;52028;50.658;14.004;2022-08-19T06:56:54;13.80;;;9.52;;
65420;SDS011;52028;50.658;14.004;2022-08-19T06:59:21;13.65;;;9.40;;
65420;SDS011;52028;50.658;14.004;2022-08-19T07:01:53;13.25;;;9.45;;
65420;SDS011;52028;50.658;14.004;2022-08-19T07:04:21;12.93;;;10.07;;
65420;SDS011;52028;50.658;14.004;2022-08-19T07:07:03;15.05;;;10.95;;
65420;SDS011;52028;50.658;14.004;2022-08-19T07:09:38;15.95;;;10.57;;
65420;SDS011;52028;50.658;14.004;2022-08-19T07:12:06;14.02;;;10.23;;
65420;SDS011;52028;50.658;14.004;2022-08-19T07:14:34;14.00;;;10.57;;
65420;SDS011;52028;50.658;14.004;2022-08-19T07:17:06;13.88;;;10.30;;
65420;SDS011;52028;50.658;14.004;2022-08-19T07:19:34;17.13;;;10.43;;
65420;SDS011;52028;50.658;14.004;2022-08-19T07:22:09;14.02;;;10.60;;
65420;SDS011;52028;50.658;14.004;2022-08-19T07:24:36;13.73;;;10.27;;
65420;SDS011;52028;50.658;14.004;2022-08-19T07:27:03;16.80;;;11.63;;
65420;SDS011;52028;50.658;14.004;2022-08-19T07:29:31;16.80;;;11.13;;
65420;SDS011;52028;50.658;14.004;2022-08-19T07:31:58;17.88;;;10.35;;
65420;SDS011;52028;50.658;14.004;2022-08-19T07:34:25;13.32;;;9.38;;
65420;SDS011;52028;50.658;14.004;2022-08-19T07:36:52;16.15;;;10.77;;
65420;SDS011;52028;50.658;14.004;2022-08-19T07:39:20;15.88;;;11.20;;
65420;SDS011;52028;50.658;14.004;2022-08-19T07:41:57;15.20;;;9.73;;
65420;SDS011;52028;50.658;14.004;2022-08-19T07:44:24;16.92;;;11.57;;
65420;SDS011;52028;50.658;14.004;2022-08-19T07:46:53;14.80;;;9.98;;
65420;SDS011;52028;50.658;14.004;2022-08-19T07:49:20;13.52;;;9.95;;
65420;SDS011;52028;50.658;14.004;2022-08-19T07:51:52;12.93;;;9.85;;
65420;SDS011;52028;50.658;14.004;2022-08-19T07:54:20;15.00;;;10.15;;
65420;SDS011;52028;50.658;14.004;2022-08-19T07:56:46;16.55;;;10.13;;
65420;SDS011;52028;50.658;14.004;2022-08-19T07:59:12;13.20;;;10.70;;
65420;SDS011;52028;50.658;14.004;2022-08-19T08:01:38;15.35;;;9.38;;
65420;SDS011;52028;50.658;14.004;2022-08-19T08:04:05;16.90;;;9.73;;
65420;SDS011;52028;50.658;14.004;2022-08-19T08:06:50;13.73;;;9.70;;
65420;SDS011;52028;50.658;14.004;2022-08-19T08:09:37;14.80;;;9.70;;
65420;SDS011;52028;50.658;14.004;2022-08-19T08:12:14;13.75;;;10.38;;
65420;SDS011;52028;50.658;14.004;2022-08-19T08:14:46;12.50;;;9.63;;
65420;SDS011;52028;50.658;14.004;2022-08-19T08:17:15;11.23;;;9.50;;
65420;SDS011;52028;50.658;14.004;2022-08-19T08:19:42;14.07;;;10.38;;
65420;SDS011;52028;50.658;14.004;2022-08-19T08:22:09;15.18;;;10.32;;
65420;SDS011;52028;50.658;14.004;2022-08-19T08:25:09;13.70;;;9.73;;
65420;SDS011;52028;50.658;14.004;2022-08-19T08:27:42;14.18;;;10.05;;
65420;SDS011;52028;50.658;14.004;2022-08-19T08:30:14;13.82;;;9.98;;
65420;SDS011;52028;50.658;14.004;2022-08-19T08:33:07;12.40;;;9.98;;
65420;SDS011;52028;50.658;14.004;2022-08-19T08:35:32;14.63;;;10.23;;
65420;SDS011;52028;50.658;14.004;2022-08-19T08:37:58;15.40;;;11.43;;
65420;SDS011;52028;50.658;14.004;2022-08-19T08:45:27;12.07;;;9.15;;
65420;SDS011;52028;50.658;14.004;2022-08-19T08:47:53;12.45;;;8.98;;
65420;SDS011;52028;50.658;14.004;2022-08-19T08:50:28;12.38;;;9.13;;
65420;SDS011;52028;50.658;14.004;2022-08-19T08:53:01;11.63;;;8.80;;
65420;SDS011;52028;50.658;14.004;2022-08-19T08:55:28;12.60;;;8.82;;
65420;SDS011;52028;50.658;14.004;2022-08-19T08:58:02;13.88;;;8.38;;
65420;SDS011;52028;50.658;14.004;2022-08-19T09:00:32;12.40;;;9.55;;
65420;SDS011;52028;50.658;14.004;2022-08-19T09:02:59;12.77;;;8.13;;
65420;SDS011;52028;50.658;14.004;2022-08-19T09:08:07;11.27;;;8.98;;
65420;SDS011;52028;50.658;14.004;2022-08-19T09:10:54;10.93;;;8.73;;
65420;SDS011;52028;50.658;14.004;2022-08-19T09:16:06;13.93;;;10.00;;
65420;SDS011;52028;50.658;14.004;2022-08-19T09:18:40;14.43;;;9.75;;
65420;SDS011;52028;50.658;14.004;2022-08-19T09:21:09;11.32;;;8.00;;
65420;SDS011;52028;50.658;14.004;2022-08-19T09:23:35;10.60;;;8.07;;
65420;SDS011;52028;50.658;14.004;2022-08-19T09:26:04;12.88;;;9.75;;
65420;SDS011;52028;50.658;14.004;2022-08-19T09:28:39;18.70;;;8.63;;
65420;SDS011;52028;50.658;14.004;2022-08-19T09:31:11;13.18;;;8.85;;
65420;SDS011;52028;50.658;14.004;2022-08-19T09:33:38;11.90;;;8.15;;
65420;SDS011;52028;50.658;14.004;2022-08-19T09:36:07;15.23;;;8.55;;
65420;SDS011;52028;50.658;14.004;2022-08-19T09:38:35;12.68;;;9.35;;
65420;SDS011;52028;50.658;14.004;2022-08-19T09:41:05;11.27;;;8.15;;
65420;SDS011;52028;50.658;14.004;2022-08-19T09:43:32;11.20;;;8.88;;
65420;SDS011;52028;50.658;14.004;2022-08-19T09:46:01;13.48;;;8.70;;
65420;SDS011;52028;50.658;14.004;2022-08-19T09:51:01;15.52;;;9.00;;
65420;SDS011;52028;50.658;14.004;2022-08-19T09:53:31;10.55;;;8.38;;
65420;SDS011;52028;50.658;14.004;2022-08-19T09:55:57;11.57;;;9.38;;
65420;SDS011;52028;50.658;14.004;2022-08-19T09:58:22;14.55;;;9.25;;
65420;SDS011;52028;50.658;14.004;2022-08-19T10:00:52;12.05;;;8.70;;
65420;SDS011;52028;50.658;14.004;2022-08-19T10:03:22;12.20;;;8.93;;
65420;SDS011;52028;50.658;14.004;2022-08-19T10:05:48;10.93;;;8.05;;
65420;SDS011;52028;50.658;14.004;2022-08-19T10:08:14;11.32;;;8.55;;
65420;SDS011;52028;50.658;14.004;2022-08-19T10:11:00;11.93;;;9.18;;
65420;SDS011;52028;50.658;14.004;2022-08-19T10:13:27;15.00;;;8.80;;
65420;SDS011;52028;50.658;14.004;2022-08-19T10:15:54;13.20;;;8.20;;
65420;SDS011;52028;50.658;14.004;2022-08-19T10:18:21;14.93;;;9.10;;
65420;SDS011;52028;50.658;14.004;2022-08-19T10:20:48;12.30;;;8.40;;
65420;SDS011;52028;50.658;14.004;2022-08-19T10:23:15;13.50;;;8.70;;
65420;SDS011;52028;50.658;14.004;2022-08-19T10:25:41;11.98;;;8.88;;
65420;SDS011;52028;50.658;14.004;2022-08-19T10:28:07;11.35;;;8.35;;
65420;SDS011;52028;50.658;14.004;2022-08-19T10:30:35;12.02;;;9.13;;
65420;SDS011;52028;50.658;14.004;2022-08-19T10:33:00;12.90;;;8.73;;
65420;SDS011;52028;50.658;14.004;2022-08-19T10:35:26;10.30;;;7.90;;
65420;SDS011;52028;50.658;14.004;2022-08-19T10:37:53;16.30;;;8.40;;
65420;SDS011;52028;50.658;14.004;2022-08-19T10:40:18;10.85;;;7.63;;
65420;SDS011;52028;50.658;14.004;2022-08-19T10:42:44;10.43;;;7.57;;
65420;SDS011;52028;50.658;14.004;2022-08-19T10:45:09;8.73;;;6.40;;
65420;SDS011;52028;50.658;14.004;2022-08-19T10:47:35;9.48;;;6.50;;
65420;SDS011;52028;50.658;14.004;2022-08-19T10:50:01;8.80;;;6.70;;
65420;SDS011;52028;50.658;14.004;2022-08-19T10:52:47;8.38;;;6.65;;
65420;SDS011;52028;50.658;14.004;2022-08-19T10:55:14;9.60;;;7.53;;
65420;SDS011;52028;50.658;14.004;2022-08-19T10:57:58;9.57;;;7.65;;
65420;SDS011;52028;50.658;14.004;2022-08-19T11:00:25;15.35;;;10.23;;
65420;SDS011;52028;50.658;14.004;2022-08-19T11:02:51;9.00;;;7.68;;
65420;SDS011;52028;50.658;14.004;2022-08-19T11:05:17;14.50;;;10.32;;
65420;SDS011;52028;50.658;14.004;2022-08-19T11:07:43;14.40;;;11.70;;
65420;SDS011;52028;50.658;14.004;2022-08-19T11:10:10;16.67;;;10.80;;
65420;SDS011;52028;50.658;14.004;2022-08-19T11:12:38;10.02;;;8.27;;
65420;SDS011;52028;50.658;14.004;2022-08-19T11:15:08;13.75;;;8.52;;
65420;SDS011;52028;50.658;14.004;2022-08-19T11:17:36;12.32;;;8.63;;
65420;SDS011;52028;50.658;14.004;2022-08-19T11:20:08;12.30;;;8.45;;
65420;SDS011;52028;50.658;14.004;2022-08-19T11:22:37;9.82;;;8.00;;
65420;SDS011;52028;50.658;14.004;2022-08-19T11:25:03;10.48;;;8.15;;
65420;SDS011;52028;50.658;14.004;2022-08-19T11:27:29;11.00;;;8.77;;
65420;SDS011;52028;50.658;14.004;2022-08-19T11:29:55;14.13;;;8.45;;
65420;SDS011;52028;50.658;14.004;2022-08-19T11:32:20;10.88;;;7.95;;
65420;SDS011;52028;50.658;14.004;2022-08-19T11:34:46;10.85;;;7.45;;
65420;SDS011;52028;50.658;14.004;2022-08-19T11:37:11;10.27;;;7.70;;
65420;SDS011;52028;50.658;14.004;2022-08-19T11:39:36;10.27;;;7.43;;
65420;SDS011;52028;50.658;14.004;2022-08-19T11:42:03;10.80;;;7.20;;
65420;SDS011;52028;50.658;14.004;2022-08-19T11:44:50;18.30;;;8.48;;
65420;SDS011;52028;50.658;14.004;2022-08-19T11:47:15;9.07;;;6.95;;
65420;SDS011;52028;50.658;14.004;2022-08-19T11:49:41;14.18;;;7.90;;
65420;SDS011;52028;50.658;14.004;2022-08-19T11:52:10;11.98;;;7.47;;
65420;SDS011;52028;50.658;14.004;2022-08-19T11:54:35;10.63;;;6.68;;
65420;SDS011;52028;50.658;14.004;2022-08-19T11:57:04;10.18;;;6.95;;
65420;SDS011;52028;50.658;14.004;2022-08-19T11:59:30;13.88;;;7.93;;
65420;SDS011;52028;50.658;14.004;2022-08-19T12:01:56;12.30;;;7.97;;
65420;SDS011;52028;50.658;14.004;2022-08-19T12:04:22;8.45;;;7.25;;
65420;SDS011;52028;50.658;14.004;2022-08-19T12:06:48;9.98;;;8.45;;
65420;SDS011;52028;50.658;14.004;2022-08-19T12:09:15;11.45;;;8.25;;
65420;SDS011;52028;50.658;14.004;2022-08-19T12:11:42;11.95;;;7.32;;
65420;SDS011;52028;50.658;14.004;2022-08-19T12:14:09;7.57;;;6.40;;
65420;SDS011;52028;50.658;14.004;2022-08-19T12:16:36;10.48;;;6.53;;
65420;SDS011;52028;50.658;14.004;2022-08-19T12:19:03;9.43;;;7.47;;
65420;SDS011;52028;50.658;14.004;2022-08-19T12:21:30;7.43;;;6.15;;
65420;SDS011;52028;50.658;14.004;2022-08-19T12:23:58;12.38;;;7.80;;
65420;SDS011;52028;50.658;14.004;2022-08-19T12:26:24;10.63;;;6.72;;
65420;SDS011;52028;50.658;14.004;2022-08-19T12:28:51;9.50;;;6.60;;
65420;SDS011;52028;50.658;14.004;2022-08-19T12:31:17;8.98;;;6.90;;
65420;SDS011;52028;50.658;14.004;2022-08-19T12:33:44;10.43;;;7.32;;
65420;SDS011;52028;50.658;14.004;2022-08-19T12:36:11;14.02;;;8.80;;
65420;SDS011;52028;50.658;14.004;2022-08-19T12:38:38;11.27;;;7.70;;
65420;SDS011;52028;50.658;14.004;2022-08-19T12:41:04;9.82;;;7.43;;
65420;SDS011;52028;50.658;14.004;2022-08-19T12:43:31;9.48;;;7.13;;
65420;SDS011;52028;50.658;14.004;2022-08-19T12:45:57;9.40;;;7.20;;
65420;SDS011;52028;50.658;14.004;2022-08-19T12:48:22;12.48;;;7.40;;
65420;SDS011;52028;50.658;14.004;2022-08-19T12:50:47;9.02;;;6.88;;
65420;SDS011;52028;50.658;14.004;2022-08-19T12:53:13;8.63;;;6.57;;
65420;SDS011;52028;50.658;14.004;2022-08-19T12:55:39;10.80;;;6.88;;
65420;SDS011;52028;50.658;14.004;2022-08-19T12:58:05;8.07;;;6.70;;
65420;SDS011;52028;50.658;14.004;2022-08-19T13:00:31;13.27;;;9.35;;
65420;SDS011;52028;50.658;14.004;2022-08-19T13:02:57;9.43;;;7.32;;
65420;SDS011;52028;50.658;14.004;2022-08-19T13:05:24;8.55;;;6.75;;
65420;SDS011;52028;50.658;14.004;2022-08-19T13:07:52;8.95;;;7.55;;
65420;SDS011;52028;50.658;14.004;2022-08-19T13:10:22;14.38;;;8.02;;
65420;SDS011;52028;50.658;14.004;2022-08-19T13:12:50;11.97;;;6.83;;
65420;SDS011;52028;50.658;14.004;2022-08-19T13:15:17;9.98;;;7.40;;
65420;SDS011;52028;50.658;14.004;2022-08-19T13:17:47;8.82;;;6.60;;
65420;SDS011;52028;50.658;14.004;2022-08-19T13:20:15;10.38;;;7.15;;
65420;SDS011;52028;50.658;14.004;2022-08-19T13:22:41;8.45;;;6.35;;
65420;SDS011;52028;50.658;14.004;2022-08-19T13:25:07;6.97;;;5.72;;
65420;SDS011;52028;50.658;14.004;2022-08-19T13:27:34;7.82;;;5.20;;
65420;SDS011;52028;50.658;14.004;2022-08-19T13:29:59;7.30;;;5.78;;
65420;SDS011;52028;50.658;14.004;2022-08-19T13:32:44;11.38;;;5.72;;
65420;SDS011;52028;50.658;14.004;2022-08-19T13:35:28;5.85;;;5.00;;
65420;SDS011;52028;50.658;14.004;2022-08-19T13:37:53;7.30;;;5.70;;
65420;SDS011;52028;50.658;14.004;2022-08-19T13:40:20;7.82;;;5.72;;
65420;SDS011;52028;50.658;14.004;2022-08-19T13:42:49;10.35;;;5.63;;
65420;SDS011;52028;50.658;14.004;2022-08-19T13:45:16;7.75;;;6.07;;
65420;SDS011;52028;50.658;14.004;2022-08-19T13:47:45;7.55;;;5.63;;
65420;SDS011;52028;50.658;14.004;2022-08-19T13:50:12;6.07;;;5.47;;
65420;SDS011;52028;50.658;14.004;2022-08-19T13:52:39;8.85;;;6.07;;
65420;SDS011;52028;50.658;14.004;2022-08-19T13:55:05;6.70;;;5.80;;
65420;SDS011;52028;50.658;14.004;2022-08-19T13:57:32;6.43;;;5.82;;
65420;SDS011;52028;50.658;14.004;2022-08-19T13:59:58;9.43;;;6.20;;
65420;SDS011;52028;50.658;14.004;2022-08-19T14:02:24;7.32;;;5.72;;
65420;SDS011;52028;50.658;14.004;2022-08-19T14:04:51;7.60;;;6.35;;
65420;SDS011;52028;50.658;14.004;2022-08-19T14:07:16;6.60;;;5.90;;
65420;SDS011;52028;50.658;14.004;2022-08-19T14:09:42;6.35;;;5.70;;
65420;SDS011;52028;50.658;14.004;2022-08-19T14:12:07;7.90;;;6.07;;
65420;SDS011;52028;50.658;14.004;2022-08-19T14:14:36;6.60;;;5.90;;
65420;SDS011;52028;50.658;14.004;2022-08-19T14:17:05;7.15;;;5.70;;
65420;SDS011;52028;50.658;14.004;2022-08-19T14:19:32;5.70;;;5.05;;
65420;SDS011;52028;50.658;14.004;2022-08-19T14:21:57;7.72;;;5.65;;
65420;SDS011;52028;50.658;14.004;2022-08-19T14:24:23;6.55;;;4.93;;
65420;SDS011;52028;50.658;14.004;2022-08-19T14:26:48;6.55;;;4.70;;
65420;SDS011;52028;50.658;14.004;2022-08-19T14:29:13;5.35;;;4.50;;
65420;SDS011;52028;50.658;14.004;2022-08-19T14:31:39;4.63;;;3.92;;
65420;SDS011;52028;50.658;14.004;2022-08-19T14:34:07;6.65;;;4.10;;
65420;SDS011;52028;50.658;14.004;2022-08-19T14:36:32;5.20;;;4.13;;
65420;SDS011;52028;50.658;14.004;2022-08-19T14:38:59;4.72;;;3.70;;
65420;SDS011;52028;50.658;14.004;2022-08-19T14:41:25;5.88;;;3.90;;